Terminal Aerodrome Forecast
Issued by NWS

Home | Current Version | Previous Version | Graphics & Text | Print | Product List | Glossary On
Versions: 1 2 3 4 5 6 7 8 9 10 11 12 13 14 15 16 17 18 19 20 21 22 23 24
000
FTUS43 KDVN 281900 AAA
TAFCID
TAF AMD
KCID 281929Z 2819/2918 15015G21KT P6SM BKN018
      TEMPO 2819/2823 SCT018
     FM290100 14013KT 6SM BR SCT020 BKN100
     FM290600 18009KT 4SM BR OVC012
     FM290800 32018G24KT 4SM BR OVC010
     FM291400 32022G30KT P6SM OVC020=

USA.gov is the U.S. government's official web portal to all federal, state and local government web resources and services.